sensor_id;sensor_type;location;lat;lon;timestamp;pressure;altitude;pressure_sealevel;temperature;humidity
68137;BME280;54939;50.826;9.030;2023-05-23T00:00:20;98476.63;;;22.88;54.67
68137;BME280;54939;50.826;9.030;2023-05-23T00:00:50;98479.34;;;22.88;54.86
68137;BME280;54939;50.826;9.030;2023-05-23T00:01:21;98477.44;;;22.89;55.03
68137;BME280;54939;50.826;9.030;2023-05-23T00:01:51;98476.63;;;22.88;54.83
68137;BME280;54939;50.826;9.030;2023-05-23T00:02:23;98489.13;;;22.89;54.95
68137;BME280;54939;50.826;9.030;2023-05-23T00:02:54;98483.69;;;22.89;54.87
68137;BME280;54939;50.826;9.030;2023-05-23T00:03:24;98480.16;;;22.89;55.01
68137;BME280;54939;50.826;9.030;2023-05-23T00:03:54;98477.44;;;22.89;54.87
68137;BME280;54939;50.826;9.030;2023-05-23T00:04:25;98479.34;;;22.88;54.95
68137;BME280;54939;50.826;9.030;2023-05-23T00:04:55;98493.78;;;22.89;54.80
68137;BME280;54939;50.826;9.030;2023-05-23T00:05:27;98480.97;;;22.89;54.97
68137;BME280;54939;50.826;9.030;2023-05-23T00:05:58;98478.25;;;22.89;54.95
68137;BME280;54939;50.826;9.030;2023-05-23T00:06:28;98491.06;;;22.89;55.06
68137;BME280;54939;50.826;9.030;2023-05-23T00:06:58;98490.22;;;22.88;54.97
68137;BME280;54939;50.826;9.030;2023-05-23T00:07:28;98488.34;;;22.89;54.58
68137;BME280;54939;50.826;9.030;2023-05-23T00:07:59;98483.69;;;22.89;54.81
68137;BME280;54939;50.826;9.030;2023-05-23T00:08:30;98483.69;;;22.89;54.87
68137;BME280;54939;50.826;9.030;2023-05-23T00:09:00;98487.50;;;22.88;54.71
68137;BME280;54939;50.826;9.030;2023-05-23T00:09:30;98493.78;;;22.89;54.71
68137;BME280;54939;50.826;9.030;2023-05-23T00:10:00;98493.78;;;22.89;54.69
68137;BME280;54939;50.826;9.030;2023-05-23T00:10:31;98497.31;;;22.89;54.80
68137;BME280;54939;50.826;9.030;2023-05-23T00:11:01;98492.94;;;22.88;54.88
68137;BME280;54939;50.826;9.030;2023-05-23T00:11:31;98496.50;;;22.89;54.82
68137;BME280;54939;50.826;9.030;2023-05-23T00:12:01;98495.41;;;22.90;55.01
68137;BME280;54939;50.826;9.030;2023-05-23T00:12:31;98490.22;;;22.88;55.04
68137;BME280;54939;50.826;9.030;2023-05-23T00:13:02;98495.41;;;22.90;55.00
68137;BME280;54939;50.826;9.030;2023-05-23T00:13:34;98490.22;;;22.88;54.82
68137;BME280;54939;50.826;9.030;2023-05-23T00:14:04;98491.06;;;22.89;54.82
68137;BME280;54939;50.826;9.030;2023-05-23T00:14:37;98493.78;;;22.89;54.89
68137;BME280;54939;50.826;9.030;2023-05-23T00:15:09;98491.06;;;22.89;54.86
68137;BME280;54939;50.826;9.030;2023-05-23T00:15:39;98491.06;;;22.89;54.44
68137;BME280;54939;50.826;9.030;2023-05-23T00:16:13;98495.66;;;22.88;54.87
68137;BME280;54939;50.826;9.030;2023-05-23T00:16:43;98495.66;;;22.88;54.85
68137;BME280;54939;50.826;9.030;2023-05-23T00:17:14;98491.06;;;22.89;54.81
68137;BME280;54939;50.826;9.030;2023-05-23T00:17:46;98490.69;;;22.85;54.97
68137;BME280;54939;50.826;9.030;2023-05-23T00:18:17;98492.69;;;22.90;54.75
68137;BME280;54939;50.826;9.030;2023-05-23T00:18:47;98492.94;;;22.88;54.73
68137;BME280;54939;50.826;9.030;2023-05-23T00:19:19;98489.63;;;22.86;54.54
68137;BME280;54939;50.826;9.030;2023-05-23T00:19:49;98493.78;;;22.89;54.67
68137;BME280;54939;50.826;9.030;2023-05-23T00:20:19;98490.22;;;22.88;54.81
68137;BME280;54939;50.826;9.030;2023-05-23T00:20:50;98482.06;;;22.88;54.80
68137;BME280;54939;50.826;9.030;2023-05-23T00:21:20;98491.06;;;22.89;54.98
68137;BME280;54939;50.826;9.030;2023-05-23T00:21:51;98492.94;;;22.88;54.67
68137;BME280;54939;50.826;9.030;2023-05-23T00:22:22;98491.84;;;22.89;54.37
68137;BME280;54939;50.826;9.030;2023-05-23T00:22:52;98494.56;;;22.89;54.88
68137;BME280;54939;50.826;9.030;2023-05-23T00:23:23;98489.13;;;22.89;54.96
68137;BME280;54939;50.826;9.030;2023-05-23T00:23:54;98493.78;;;22.89;54.70
68137;BME280;54939;50.826;9.030;2023-05-23T00:24:24;98495.41;;;22.90;54.66
68137;BME280;54939;50.826;9.030;2023-05-23T00:24:54;98493.53;;;22.90;54.58
68137;BME280;54939;50.826;9.030;2023-05-23T00:25:26;98498.97;;;22.90;54.90
68137;BME280;54939;50.826;9.030;2023-05-23T00:26:02;98495.19;;;22.91;54.70
68137;BME280;54939;50.826;9.030;2023-05-23T00:26:33;98491.06;;;22.89;54.73
68137;BME280;54939;50.826;9.030;2023-05-23T00:27:04;98498.13;;;22.90;54.80
68137;BME280;54939;50.826;9.030;2023-05-23T00:27:34;98498.97;;;22.90;54.97
68137;BME280;54939;50.826;9.030;2023-05-23T00:28:05;98498.13;;;22.90;54.74
68137;BME280;54939;50.826;9.030;2023-05-23T00:28:36;98494.56;;;22.89;54.56
68137;BME280;54939;50.826;9.030;2023-05-23T00:29:06;98493.78;;;22.89;54.70
68137;BME280;54939;50.826;9.030;2023-05-23T00:29:36;98491.84;;;22.89;54.96
68137;BME280;54939;50.826;9.030;2023-05-23T00:30:07;98492.69;;;22.90;54.68
68137;BME280;54939;50.826;9.030;2023-05-23T00:30:37;98500.03;;;22.89;54.31
68137;BME280;54939;50.826;9.030;2023-05-23T00:31:07;98500.03;;;22.89;54.93
68137;BME280;54939;50.826;9.030;2023-05-23T00:31:37;98508.19;;;22.89;54.50
68137;BME280;54939;50.826;9.030;2023-05-23T00:32:07;98496.97;;;22.86;54.61
68137;BME280;54939;50.826;9.030;2023-05-23T00:32:37;98496.50;;;22.89;54.25
68137;BME280;54939;50.826;9.030;2023-05-23T00:33:08;98505.47;;;22.89;54.37
68137;BME280;54939;50.826;9.030;2023-05-23T00:33:38;98505.47;;;22.89;54.28
68137;BME280;54939;50.826;9.030;2023-05-23T00:34:08;98505.47;;;22.89;54.89
68137;BME280;54939;50.826;9.030;2023-05-23T00:34:38;98508.19;;;22.89;54.41
68137;BME280;54939;50.826;9.030;2023-05-23T00:35:08;98501.13;;;22.88;54.50
68137;BME280;54939;50.826;9.030;2023-05-23T00:35:42;98498.38;;;22.88;54.52
68137;BME280;54939;50.826;9.030;2023-05-23T00:36:12;98500.84;;;22.90;54.22
68137;BME280;54939;50.826;9.030;2023-05-23T00:36:43;98510.13;;;22.89;54.45
68137;BME280;54939;50.826;9.030;2023-05-23T00:37:16;98502.75;;;22.89;54.81
68137;BME280;54939;50.826;9.030;2023-05-23T00:37:47;98504.66;;;22.89;54.93
68137;BME280;54939;50.826;9.030;2023-05-23T00:38:19;98506.56;;;22.88;54.59
68137;BME280;54939;50.826;9.030;2023-05-23T00:38:49;98501.94;;;22.89;54.17
68137;BME280;54939;50.826;9.030;2023-05-23T00:39:19;98499.22;;;22.89;54.98
68137;BME280;54939;50.826;9.030;2023-05-23T00:39:49;98499.22;;;22.89;54.57
68137;BME280;54939;50.826;9.030;2023-05-23T00:40:20;98492.94;;;22.88;54.71
68137;BME280;54939;50.826;9.030;2023-05-23T00:40:50;98491.06;;;22.89;54.70
68137;BME280;54939;50.826;9.030;2023-05-23T00:41:20;98500.03;;;22.89;54.40
68137;BME280;54939;50.826;9.030;2023-05-23T00:41:50;98495.66;;;22.88;54.68
68137;BME280;54939;50.826;9.030;2023-05-23T00:42:21;98495.66;;;22.88;55.00
68137;BME280;54939;50.826;9.030;2023-05-23T00:42:51;98493.78;;;22.89;54.93
68137;BME280;54939;50.826;9.030;2023-05-23T00:43:21;98494.84;;;22.88;54.66
68137;BME280;54939;50.826;9.030;2023-05-23T00:43:51;98492.13;;;22.88;54.86
68137;BME280;54939;50.826;9.030;2023-05-23T00:44:22;98498.38;;;22.88;54.91
68137;BME280;54939;50.826;9.030;2023-05-23T00:44:52;98495.66;;;22.88;54.77
68137;BME280;54939;50.826;9.030;2023-05-23T00:45:22;98491.84;;;22.89;54.79
68137;BME280;54939;50.826;9.030;2023-05-23T00:45:52;98500.03;;;22.89;54.81
68137;BME280;54939;50.826;9.030;2023-05-23T00:46:22;98496.50;;;22.89;54.82
68137;BME280;54939;50.826;9.030;2023-05-23T00:46:53;98500.84;;;22.90;54.73
68137;BME280;54939;50.826;9.030;2023-05-23T00:47:24;98499.44;;;22.87;54.83
68137;BME280;54939;50.826;9.030;2023-05-23T00:47:54;98501.94;;;22.89;54.49
68137;BME280;54939;50.826;9.030;2023-05-23T00:48:25;98498.38;;;22.88;54.77
68137;BME280;54939;50.826;9.030;2023-05-23T00:48:55;98496.50;;;22.89;54.03
68137;BME280;54939;50.826;9.030;2023-05-23T00:49:26;98501.94;;;22.89;54.52
68137;BME280;54939;50.826;9.030;2023-05-23T00:49:57;98501.13;;;22.88;54.82
68137;BME280;54939;50.826;9.030;2023-05-23T00:50:27;98499.22;;;22.89;54.85
68137;BME280;54939;50.826;9.030;2023-05-23T00:51:00;98499.22;;;22.89;54.68
68137;BME280;54939;50.826;9.030;2023-05-23T00:51:31;98502.75;;;22.89;54.33
68137;BME280;54939;50.826;9.030;2023-05-23T00:52:01;98501.13;;;22.88;54.71
68137;BME280;54939;50.826;9.030;2023-05-23T00:52:32;98497.56;;;22.88;54.84
68137;BME280;54939;50.826;9.030;2023-05-23T00:53:03;98496.50;;;22.89;54.54
68137;BME280;54939;50.826;9.030;2023-05-23T00:53:33;98497.31;;;22.89;54.38
68137;BME280;54939;50.826;9.030;2023-05-23T00:54:03;98493.78;;;22.89;54.10
68137;BME280;54939;50.826;9.030;2023-05-23T00:54:34;98499.22;;;22.89;54.58
68137;BME280;54939;50.826;9.030;2023-05-23T00:55:05;98503.84;;;22.88;54.57
68137;BME280;54939;50.826;9.030;2023-05-23T00:55:37;98496.50;;;22.89;54.23
68137;BME280;54939;50.826;9.030;2023-05-23T00:56:08;98498.38;;;22.88;54.04
68137;BME280;54939;50.826;9.030;2023-05-23T00:56:38;98494.00;;;22.87;54.50
68137;BME280;54939;50.826;9.030;2023-05-23T00:57:09;98495.66;;;22.88;54.86
68137;BME280;54939;50.826;9.030;2023-05-23T00:57:40;98501.13;;;22.88;54.58
68137;BME280;54939;50.826;9.030;2023-05-23T00:58:13;98496.50;;;22.89;54.83
68137;BME280;54939;50.826;9.030;2023-05-23T00:58:44;98492.94;;;22.88;54.74
68137;BME280;54939;50.826;9.030;2023-05-23T00:59:14;98489.41;;;22.88;54.34
68137;BME280;54939;50.826;9.030;2023-05-23T00:59:45;98492.13;;;22.88;54.59
68137;BME280;54939;50.826;9.030;2023-05-23T01:00:16;98498.38;;;22.88;54.54
68137;BME280;54939;50.826;9.030;2023-05-23T01:00:46;98495.66;;;22.88;54.06
68137;BME280;54939;50.826;9.030;2023-05-23T01:01:19;98492.94;;;22.88;54.61
68137;BME280;54939;50.826;9.030;2023-05-23T01:01:49;98491.06;;;22.89;54.34
68137;BME280;54939;50.826;9.030;2023-05-23T01:02:20;98493.78;;;22.89;54.33
68137;BME280;54939;50.826;9.030;2023-05-23T01:02:50;98481.22;;;22.88;54.57
68137;BME280;54939;50.826;9.030;2023-05-23T01:03:20;98491.84;;;22.89;54.11
68137;BME280;54939;50.826;9.030;2023-05-23T01:03:52;98490.22;;;22.88;54.53
68137;BME280;54939;50.826;9.030;2023-05-23T01:04:22;98490.22;;;22.88;54.69
68137;BME280;54939;50.826;9.030;2023-05-23T01:04:57;98489.41;;;22.88;54.49
68137;BME280;54939;50.826;9.030;2023-05-23T01:05:27;98490.22;;;22.88;54.90
68137;BME280;54939;50.826;9.030;2023-05-23T01:05:57;98489.97;;;22.90;54.36
68137;BME280;54939;50.826;9.030;2023-05-23T01:06:27;98489.13;;;22.89;54.11
68137;BME280;54939;50.826;9.030;2023-05-23T01:06:59;98495.66;;;22.88;54.68
68137;BME280;54939;50.826;9.030;2023-05-23T01:07:29;98496.50;;;22.89;54.40
68137;BME280;54939;50.826;9.030;2023-05-23T01:08:00;98490.22;;;22.88;54.92
68137;BME280;54939;50.826;9.030;2023-05-23T01:08:32;98492.94;;;22.88;54.33
68137;BME280;54939;50.826;9.030;2023-05-23T01:09:02;98501.13;;;22.88;54.69
68137;BME280;54939;50.826;9.030;2023-05-23T01:09:32;98491.06;;;22.89;54.48
68137;BME280;54939;50.826;9.030;2023-05-23T01:10:02;98498.38;;;22.88;54.66
68137;BME280;54939;50.826;9.030;2023-05-23T01:10:33;98491.06;;;22.89;54.72
68137;BME280;54939;50.826;9.030;2023-05-23T01:11:05;98499.22;;;22.89;54.08
68137;BME280;54939;50.826;9.030;2023-05-23T01:12:28;98492.13;;;22.88;54.17
68137;BME280;54939;50.826;9.030;2023-05-23T01:13:37;98494.56;;;22.89;54.75
68137;BME280;54939;50.826;9.030;2023-05-23T01:14:10;98496.50;;;22.89;54.53
68137;BME280;54939;50.826;9.030;2023-05-23T01:14:44;98494.56;;;22.89;54.80
68137;BME280;54939;50.826;9.030;2023-05-23T01:15:17;98498.38;;;22.88;54.59
68137;BME280;54939;50.826;9.030;2023-05-23T01:15:55;98492.13;;;22.88;54.32
68137;BME280;54939;50.826;9.030;2023-05-23T01:16:35;98492.13;;;22.88;54.08
68137;BME280;54939;50.826;9.030;2023-05-23T01:17:10;98494.56;;;22.89;54.29
68137;BME280;54939;50.826;9.030;2023-05-23T01:18:14;98495.66;;;22.88;53.85
68137;BME280;54939;50.826;9.030;2023-05-23T01:18:47;98498.38;;;22.88;54.15
68137;BME280;54939;50.826;9.030;2023-05-23T01:19:27;98502.75;;;22.89;54.15
68137;BME280;54939;50.826;9.030;2023-05-23T01:20:06;98493.78;;;22.89;53.68
68137;BME280;54939;50.826;9.030;2023-05-23T01:20:40;98500.84;;;22.90;54.27
68137;BME280;54939;50.826;9.030;2023-05-23T01:21:17;98497.31;;;22.89;54.37
68137;BME280;54939;50.826;9.030;2023-05-23T01:21:47;98496.50;;;22.89;54.30
68137;BME280;54939;50.826;9.030;2023-05-23T01:24:52;98500.03;;;22.89;54.11
68137;BME280;54939;50.826;9.030;2023-05-23T01:25:38;98504.66;;;22.89;54.01
68137;BME280;54939;50.826;9.030;2023-05-23T01:26:27;98505.47;;;22.89;54.62
68137;BME280;54939;50.826;9.030;2023-05-23T01:27:52;98504.66;;;22.89;54.27
68137;BME280;54939;50.826;9.030;2023-05-23T01:28:28;98507.38;;;22.89;54.36
68137;BME280;54939;50.826;9.030;2023-05-23T01:29:06;98508.19;;;22.89;53.67
68137;BME280;54939;50.826;9.030;2023-05-23T01:29:45;98502.19;;;22.87;53.95
68137;BME280;54939;50.826;9.030;2023-05-23T01:30:17;98508.44;;;22.88;54.13
68137;BME280;54939;50.826;9.030;2023-05-23T01:30:48;98494.84;;;22.88;54.56
68137;BME280;54939;50.826;9.030;2023-05-23T01:31:20;98501.94;;;22.89;54.61
68137;BME280;54939;50.826;9.030;2023-05-23T01:31:53;98504.66;;;22.89;54.15
68137;BME280;54939;50.826;9.030;2023-05-23T01:32:24;98504.66;;;22.89;54.67
68137;BME280;54939;50.826;9.030;2023-05-23T01:32:56;98504.66;;;22.89;54.45
68137;BME280;54939;50.826;9.030;2023-05-23T01:33:27;98501.13;;;22.88;54.33
68137;BME280;54939;50.826;9.030;2023-05-23T01:33:57;98494.00;;;22.87;54.51
68137;BME280;54939;50.826;9.030;2023-05-23T01:34:27;98503.56;;;22.90;53.91
68137;BME280;54939;50.826;9.030;2023-05-23T01:34:59;98501.13;;;22.88;54.18
68137;BME280;54939;50.826;9.030;2023-05-23T01:35:29;98497.56;;;22.88;53.60
68137;BME280;54939;50.826;9.030;2023-05-23T01:36:00;98493.41;;;22.85;53.80
68137;BME280;54939;50.826;9.030;2023-05-23T01:36:32;98500.03;;;22.89;54.69
68137;BME280;54939;50.826;9.030;2023-05-23T01:37:08;98501.13;;;22.88;54.59
68137;BME280;54939;50.826;9.030;2023-05-23T01:37:39;98503.84;;;22.88;54.42
68137;BME280;54939;50.826;9.030;2023-05-23T01:38:10;98500.28;;;22.88;54.53
68137;BME280;54939;50.826;9.030;2023-05-23T01:38:40;98506.56;;;22.88;54.56
68137;BME280;54939;50.826;9.030;2023-05-23T01:39:10;98500.28;;;22.88;54.39
68137;BME280;54939;50.826;9.030;2023-05-23T01:39:41;98506.56;;;22.88;53.97
68137;BME280;54939;50.826;9.030;2023-05-23T01:40:11;98503.00;;;22.88;53.95
68137;BME280;54939;50.826;9.030;2023-05-23T01:40:41;98503.00;;;22.88;53.48
68137;BME280;54939;50.826;9.030;2023-05-23T01:41:11;98503.84;;;22.88;53.73
68137;BME280;54939;50.826;9.030;2023-05-23T01:41:42;98496.72;;;22.87;54.52
68137;BME280;54939;50.826;9.030;2023-05-23T01:42:12;98495.91;;;22.87;54.67
68137;BME280;54939;50.826;9.030;2023-05-23T01:42:42;98501.94;;;22.89;54.61
68137;BME280;54939;50.826;9.030;2023-05-23T01:43:12;98503.00;;;22.88;54.09
68137;BME280;54939;50.826;9.030;2023-05-23T01:43:42;98501.34;;;22.87;53.44
68137;BME280;54939;50.826;9.030;2023-05-23T01:44:13;98502.19;;;22.87;53.54
68137;BME280;54939;50.826;9.030;2023-05-23T01:44:43;98497.56;;;22.88;53.36
68137;BME280;54939;50.826;9.030;2023-05-23T01:45:14;98498.38;;;22.88;54.61
68137;BME280;54939;50.826;9.030;2023-05-23T01:45:45;98499.44;;;22.87;54.41
68137;BME280;54939;50.826;9.030;2023-05-23T01:46:15;98497.56;;;22.88;54.51
68137;BME280;54939;50.826;9.030;2023-05-23T01:46:46;98495.66;;;22.88;53.95
68137;BME280;54939;50.826;9.030;2023-05-23T01:47:17;98493.19;;;22.87;53.73
68137;BME280;54939;50.826;9.030;2023-05-23T01:47:48;98491.28;;;22.87;53.54
68137;BME280;54939;50.826;9.030;2023-05-23T01:48:19;98501.13;;;22.88;53.40
68137;BME280;54939;50.826;9.030;2023-05-23T01:48:50;98501.34;;;22.87;53.60
68137;BME280;54939;50.826;9.030;2023-05-23T01:49:20;98507.63;;;22.87;53.23
68137;BME280;54939;50.826;9.030;2023-05-23T01:49:51;98503.25;;;22.86;53.37
68137;BME280;54939;50.826;9.030;2023-05-23T01:50:22;98506.78;;;22.87;53.98
68137;BME280;54939;50.826;9.030;2023-05-23T01:50:53;98503.00;;;22.88;54.58
68137;BME280;54939;50.826;9.030;2023-05-23T01:51:24;98495.91;;;22.87;54.37
68137;BME280;54939;50.826;9.030;2023-05-23T01:51:56;98504.91;;;22.87;54.34
68137;BME280;54939;50.826;9.030;2023-05-23T01:52:27;98506.78;;;22.87;54.49
68137;BME280;54939;50.826;9.030;2023-05-23T01:52:58;98503.00;;;22.88;54.10
68137;BME280;54939;50.826;9.030;2023-05-23T01:53:28;98504.06;;;22.87;53.82
68137;BME280;54939;50.826;9.030;2023-05-23T01:53:59;98507.63;;;22.87;53.87
68137;BME280;54939;50.826;9.030;2023-05-23T01:54:29;98505.13;;;22.86;53.50
68137;BME280;54939;50.826;9.030;2023-05-23T01:55:02;98500.50;;;22.86;53.65
68137;BME280;54939;50.826;9.030;2023-05-23T01:55:35;98504.91;;;22.87;54.07
68137;BME280;54939;50.826;9.030;2023-05-23T01:56:05;98505.97;;;22.86;54.03
68137;BME280;54939;50.826;9.030;2023-05-23T01:56:36;98504.91;;;22.87;54.44
68137;BME280;54939;50.826;9.030;2023-05-23T01:57:06;98511.16;;;22.88;53.76
68137;BME280;54939;50.826;9.030;2023-05-23T01:57:37;98511.41;;;22.86;54.42
68137;BME280;54939;50.826;9.030;2023-05-23T01:58:07;98508.44;;;22.88;53.93
68137;BME280;54939;50.826;9.030;2023-05-23T01:58:37;98507.03;;;22.85;53.78
68137;BME280;54939;50.826;9.030;2023-05-23T01:59:08;98510.56;;;22.86;54.47
68137;BME280;54939;50.826;9.030;2023-05-23T01:59:38;98507.84;;;22.86;54.44
68137;BME280;54939;50.826;9.030;2023-05-23T02:00:08;98511.41;;;22.86;54.23
68137;BME280;54939;50.826;9.030;2023-05-23T02:00:41;98500.50;;;22.86;53.90
68137;BME280;54939;50.826;9.030;2023-05-23T02:01:11;98499.69;;;22.86;53.82
68137;BME280;54939;50.826;9.030;2023-05-23T02:01:41;98506.78;;;22.87;54.05
68137;BME280;54939;50.826;9.030;2023-05-23T02:02:11;98493.41;;;22.85;53.76
68137;BME280;54939;50.826;9.030;2023-05-23T02:02:42;98500.50;;;22.86;54.56
68137;BME280;54939;50.826;9.030;2023-05-23T02:03:12;98507.84;;;22.86;54.33
68137;BME280;54939;50.826;9.030;2023-05-23T02:03:42;98508.91;;;22.85;54.29
68137;BME280;54939;50.826;9.030;2023-05-23T02:04:12;98504.28;;;22.85;54.62
68137;BME280;54939;50.826;9.030;2023-05-23T02:04:42;98506.78;;;22.87;53.54
68137;BME280;54939;50.826;9.030;2023-05-23T02:05:13;98502.41;;;22.86;53.87
68137;BME280;54939;50.826;9.030;2023-05-23T02:05:43;98496.38;;;22.84;53.76
68137;BME280;54939;50.826;9.030;2023-05-23T02:06:13;98507.03;;;22.85;54.28
68137;BME280;54939;50.826;9.030;2023-05-23T02:06:43;98498.84;;;22.85;54.30
68137;BME280;54939;50.826;9.030;2023-05-23T02:07:13;98501.56;;;22.85;54.11
68137;BME280;54939;50.826;9.030;2023-05-23T02:07:44;98500.75;;;22.85;54.30
68137;BME280;54939;50.826;9.030;2023-05-23T02:08:14;98498.03;;;22.85;53.85
68137;BME280;54939;50.826;9.030;2023-05-23T02:08:44;98498.84;;;22.85;54.20
68137;BME280;54939;50.826;9.030;2023-05-23T02:09:14;98499.69;;;22.86;54.06
68137;BME280;54939;50.826;9.030;2023-05-23T02:09:45;98501.56;;;22.85;53.58
68137;BME280;54939;50.826;9.030;2023-05-23T02:10:15;98504.28;;;22.85;53.75
68137;BME280;54939;50.826;9.030;2023-05-23T02:10:46;98498.84;;;22.85;53.67
68137;BME280;54939;50.826;9.030;2023-05-23T02:11:16;98505.13;;;22.86;53.63
68137;BME280;54939;50.826;9.030;2023-05-23T02:11:46;98504.53;;;22.84;53.69
68137;BME280;54939;50.826;9.030;2023-05-23T02:12:16;98507.03;;;22.85;53.59
68137;BME280;54939;50.826;9.030;2023-05-23T02:12:47;98507.03;;;22.85;53.82
68137;BME280;54939;50.826;9.030;2023-05-23T02:13:17;98511.63;;;22.85;53.64
68137;BME280;54939;50.826;9.030;2023-05-23T02:13:47;98511.63;;;22.85;53.40
68137;BME280;54939;50.826;9.030;2023-05-23T02:14:17;98514.34;;;22.85;53.36
68137;BME280;54939;50.826;9.030;2023-05-23T02:14:48;98514.34;;;22.85;53.47
68137;BME280;54939;50.826;9.030;2023-05-23T02:15:21;98510.81;;;22.84;53.66
68137;BME280;54939;50.826;9.030;2023-05-23T02:15:51;98506.41;;;22.83;53.64
68137;BME280;54939;50.826;9.030;2023-05-23T02:16:21;98514.59;;;22.83;53.45
68137;BME280;54939;50.826;9.030;2023-05-23T02:16:52;98514.59;;;22.83;53.80
68137;BME280;54939;50.826;9.030;2023-05-23T02:17:22;98514.59;;;22.83;53.75
68137;BME280;54939;50.826;9.030;2023-05-23T02:17:53;98518.97;;;22.84;53.49
68137;BME280;54939;50.826;9.030;2023-05-23T02:18:23;98512.69;;;22.84;53.63
68137;BME280;54939;50.826;9.030;2023-05-23T02:18:55;98512.69;;;22.84;53.65
68137;BME280;54939;50.826;9.030;2023-05-23T02:19:25;98512.91;;;22.82;53.49
68137;BME280;54939;50.826;9.030;2023-05-23T02:19:56;98506.41;;;22.83;53.45
68137;BME280;54939;50.826;9.030;2023-05-23T02:20:26;98508.31;;;22.83;53.60
68137;BME280;54939;50.826;9.030;2023-05-23T02:20:56;98506.41;;;22.83;53.49
68137;BME280;54939;50.826;9.030;2023-05-23T02:21:26;98509.13;;;22.83;53.72
68137;BME280;54939;50.826;9.030;2023-05-23T02:21:56;98504.75;;;22.82;53.83
68137;BME280;54939;50.826;9.030;2023-05-23T02:22:27;98509.13;;;22.83;53.88
68137;BME280;54939;50.826;9.030;2023-05-23T02:22:57;98509.13;;;22.83;53.94
68137;BME280;54939;50.826;9.030;2023-05-23T02:23:27;98509.13;;;22.83;53.93
68137;BME280;54939;50.826;9.030;2023-05-23T02:23:57;98508.31;;;22.83;53.39
68137;BME280;54939;50.826;9.030;2023-05-23T02:24:27;98508.06;;;22.84;54.02
68137;BME280;54939;50.826;9.030;2023-05-23T02:24:57;98503.69;;;22.83;53.98
68137;BME280;54939;50.826;9.030;2023-05-23T02:25:28;98512.69;;;22.84;53.63
68137;BME280;54939;50.826;9.030;2023-05-23T02:25:58;98505.59;;;22.83;53.64
68137;BME280;54939;50.826;9.030;2023-05-23T02:26:28;98505.59;;;22.83;53.71
68137;BME280;54939;50.826;9.030;2023-05-23T02:26:58;98506.41;;;22.83;53.49
68137;BME280;54939;50.826;9.030;2023-05-23T02:27:29;98508.31;;;22.83;53.28
68137;BME280;54939;50.826;9.030;2023-05-23T02:27:59;98503.69;;;22.83;53.62
68137;BME280;54939;50.826;9.030;2023-05-23T02:28:29;98512.91;;;22.82;53.43
68137;BME280;54939;50.826;9.030;2023-05-23T02:28:59;98509.13;;;22.83;53.77
68137;BME280;54939;50.826;9.030;2023-05-23T02:29:29;98511.88;;;22.83;53.45
68137;BME280;54939;50.826;9.030;2023-05-23T02:30:00;98514.59;;;22.83;53.56
68137;BME280;54939;50.826;9.030;2023-05-23T02:30:30;98510.19;;;22.82;53.64
68137;BME280;54939;50.826;9.030;2023-05-23T02:31:01;98510.19;;;22.82;54.04
68137;BME280;54939;50.826;9.030;2023-05-23T02:31:31;98518.38;;;22.82;53.41
68137;BME280;54939;50.826;9.030;2023-05-23T02:32:01;98507.75;;;22.81;53.27
68137;BME280;54939;50.826;9.030;2023-05-23T02:32:31;98511.28;;;22.81;53.38
68137;BME280;54939;50.826;9.030;2023-05-23T02:33:04;98508.56;;;22.81;53.47
68137;BME280;54939;50.826;9.030;2023-05-23T02:33:35;98514.00;;;22.81;53.43
68137;BME280;54939;50.826;9.030;2023-05-23T02:34:05;98510.19;;;22.82;53.89
68137;BME280;54939;50.826;9.030;2023-05-23T02:34:35;98510.19;;;22.82;53.46
68137;BME280;54939;50.826;9.030;2023-05-23T02:35:07;98518.38;;;22.82;53.48
68137;BME280;54939;50.826;9.030;2023-05-23T02:35:38;98510.19;;;22.82;53.53
68137;BME280;54939;50.826;9.030;2023-05-23T02:36:08;98518.63;;;22.81;53.53
68137;BME280;54939;50.826;9.030;2023-05-23T02:36:38;98508.31;;;22.83;53.62
68137;BME280;54939;50.826;9.030;2023-05-23T02:37:09;98502.28;;;22.81;53.57
68137;BME280;54939;50.826;9.030;2023-05-23T02:37:39;98515.91;;;22.81;53.36
68137;BME280;54939;50.826;9.030;2023-05-23T02:38:09;98506.91;;;22.80;53.41
68137;BME280;54939;50.826;9.030;2023-05-23T02:38:39;98514.00;;;22.81;53.33
68137;BME280;54939;50.826;9.030;2023-05-23T02:39:09;98509.63;;;22.80;53.52
68137;BME280;54939;50.826;9.030;2023-05-23T02:39:40;98514.25;;;22.80;53.37
68137;BME280;54939;50.826;9.030;2023-05-23T02:40:10;98518.63;;;22.81;53.29
68137;BME280;54939;50.826;9.030;2023-05-23T02:40:41;98520.53;;;22.80;53.33
68137;BME280;54939;50.826;9.030;2023-05-23T02:41:11;98516.97;;;22.80;53.44
68137;BME280;54939;50.826;9.030;2023-05-23T02:41:41;98525.97;;;22.80;53.33
68137;BME280;54939;50.826;9.030;2023-05-23T02:42:11;98524.31;;;22.79;53.45
68137;BME280;54939;50.826;9.030;2023-05-23T02:42:41;98525.13;;;22.80;53.10
68137;BME280;54939;50.826;9.030;2023-05-23T02:43:12;98527.03;;;22.79;53.15
68137;BME280;54939;50.826;9.030;2023-05-23T02:43:43;98527.03;;;22.79;53.48
68137;BME280;54939;50.826;9.030;2023-05-23T02:44:13;98520.75;;;22.78;53.42
68137;BME280;54939;50.826;9.030;2023-05-23T02:44:44;98527.84;;;22.80;53.35
68137;BME280;54939;50.826;9.030;2023-05-23T02:45:14;98525.13;;;22.80;53.45
68137;BME280;54939;50.826;9.030;2023-05-23T02:45:44;98525.13;;;22.80;53.34
68137;BME280;54939;50.826;9.030;2023-05-23T02:46:14;98533.28;;;22.80;53.06
68137;BME280;54939;50.826;9.030;2023-05-23T02:46:44;98529.75;;;22.79;53.41
68137;BME280;54939;50.826;9.030;2023-05-23T02:47:15;98528.69;;;22.80;53.23
68137;BME280;54939;50.826;9.030;2023-05-23T02:47:45;98535.19;;;22.79;53.43
68137;BME280;54939;50.826;9.030;2023-05-23T02:48:15;98535.19;;;22.79;53.18
68137;BME280;54939;50.826;9.030;2023-05-23T02:48:45;98525.13;;;22.80;53.29
68137;BME280;54939;50.826;9.030;2023-05-23T02:49:16;98539.56;;;22.80;53.33
68137;BME280;54939;50.826;9.030;2023-05-23T02:49:46;98536.03;;;22.80;53.18